Time;durP1;ratioP1;P1;durP2;ratioP2;P2;SDS_P1;SDS_P2;PMS_P1;PMS_P2;Temp;Humidity;BMP_temperature;BMP_pressure;BME280_temperature;BME280_humidity;BME280_pressure;Samples;Min_cycle;Max_cycle;Signal;HPM_P1;HPM_P2
2020/12/03 00:00:27;;;;;;;69.72;31.05;;;;;;;-0.39;70.36;100920.81;683014;28;22421;-63
2020/12/03 00:00:51;;;;;;;72.20;31.25;;;;;;;-0.40;70.32;100927.06;679304;28;137598;-61
2020/12/03 00:01:14;;;;;;;73.45;31.38;;;;;;;-0.39;70.09;100919.97;681363;28;69283;-61
2020/12/03 00:01:35;;;;;;;72.88;30.48;;;;;;;-0.41;70.33;100919.22;680606;28;93173;-63
2020/12/03 00:01:57;;;;;;;65.10;30.33;;;;;;;-0.42;70.29;100918.38;682696;28;22395;-63
2020/12/03 00:02:19;;;;;;;70.00;31.02;;;;;;;-0.41;70.40;100909.47;682149;28;35686;-62
2020/12/03 00:02:41;;;;;;;71.07;30.85;;;;;;;-0.40;70.28;100916.44;684174;28;1405;-61
2020/12/03 00:03:06;;;;;;;67.55;30.50;;;;;;;-0.40;70.06;100915.63;682444;28;37827;-63
2020/12/03 00:03:29;;;;;;;66.32;30.08;;;;;;;-0.40;69.96;100919.09;680033;28;114985;-63
2020/12/03 00:03:53;;;;;;;66.20;29.88;;;;;;;-0.39;70.18;100918.16;681394;28;69447;-61
2020/12/03 00:04:14;;;;;;;71.10;31.10;;;;;;;-0.39;70.37;100920.81;680768;28;92289;-61
2020/12/03 00:04:36;;;;;;;70.38;30.92;;;;;;;-0.40;70.39;100912.97;682914;28;22383;-62
2020/12/03 00:04:57;;;;;;;68.80;31.65;;;;;;;-0.40;70.23;100927.06;682469;28;31353;-60
2020/12/03 00:05:18;;;;;;;68.30;31.88;;;;;;;-0.40;70.32;100915.63;683350;28;12381;-63
2020/12/03 00:05:41;;;;;;;67.07;30.42;;;;;;;-0.40;70.16;100921.75;682940;28;21518;-64
2020/12/03 00:06:08;;;;;;;66.43;30.50;;;;;;;-0.39;70.21;100919.97;681485;28;70299;-63
2020/12/03 00:06:32;;;;;;;72.90;31.00;;;;;;;-0.41;70.20;100922.72;679121;28;138106;-63
2020/12/03 00:06:55;;;;;;;66.70;30.73;;;;;;;-0.41;70.18;100913.91;680714;28;92264;-61
2020/12/03 00:07:17;;;;;;;65.35;28.98;;;;;;;-0.40;70.23;100919.09;681530;28;69506;-62
2020/12/03 00:07:38;;;;;;;64.97;29.55;;;;;;;-0.40;70.24;100915.63;682260;28;44374;-63
2020/12/03 00:07:59;;;;;;;68.85;29.88;;;;;;;-0.39;70.40;100914.66;683050;28;21607;-61
2020/12/03 00:08:21;;;;;;;68.18;30.25;;;;;;;-0.38;70.26;100913.69;682974;28;21543;-63
2020/12/03 00:08:45;;;;;;;67.03;30.40;;;;;;;-0.39;70.23;100920.81;682507;28;44380;-58
2020/12/03 00:09:10;;;;;;;66.35;30.02;;;;;;;-0.38;70.24;100917.22;680603;28;90830;-63
2020/12/03 00:09:31;;;;;;;71.25;30.63;;;;;;;-0.37;70.29;100920.72;679797;28;114331;-62
2020/12/03 00:09:53;;;;;;;69.45;30.70;;;;;;;-0.34;70.22;100922.34;683110;28;23431;-64
2020/12/03 00:10:14;;;;;;;67.15;30.63;;;;;;;-0.35;70.07;100916.16;683007;28;21149;-62
2020/12/03 00:10:36;;;;;;;69.15;30.38;;;;;;;-0.34;70.29;100922.34;682280;28;44385;-61
2020/12/03 00:11:00;;;;;;;68.75;30.40;;;;;;;-0.35;69.94;100918.81;683166;28;22370;-62
2020/12/03 00:11:23;;;;;;;67.43;30.23;;;;;;;-0.35;69.96;100923.28;680941;28;92261;-62
2020/12/03 00:11:47;;;;;;;67.25;30.50;;;;;;;-0.37;70.06;100924.22;680518;28;92272;-63
2020/12/03 00:12:08;;;;;;;70.78;31.50;;;;;;;-0.35;69.80;100926.75;680445;28;93168;-63
2020/12/03 00:12:29;;;;;;;69.75;30.35;;;;;;;-0.38;70.10;100919.88;682649;28;20662;-61
2020/12/03 00:13:12;;;;;;;68.07;29.50;;;;;;;-0.35;70.17;100921.47;683300;28;20534;-63
2020/12/03 00:13:35;;;;;;;62.75;28.48;;;;;;;-0.38;69.87;100919.00;677582;28;138324;-63
2020/12/03 00:13:56;;;;;;;70.20;30.00;;;;;;;-0.39;70.10;100918.16;681285;28;70404;-63
2020/12/03 00:14:18;;;;;;;67.55;30.50;;;;;;;-0.38;70.10;100922.53;683584;28;985;-62
2020/12/03 00:14:39;;;;;;;66.50;30.73;;;;;;;-0.39;69.83;100918.16;682401;28;45238;-63
2020/12/03 00:15:01;;;;;;;65.43;29.85;;;;;;;-0.38;69.95;100922.53;682888;28;20106;-63
2020/12/03 00:15:23;;;;;;;72.50;30.05;;;;;;;-0.37;70.21;100923.38;683641;28;977;-63
2020/12/03 00:15:46;;;;;;;71.38;31.35;;;;;;;-0.37;69.81;100915.41;683218;28;12619;-63
2020/12/03 00:16:08;;;;;;;74.63;30.98;;;;;;;-0.37;70.01;100926.03;680897;28;69361;-60
2020/12/03 00:16:31;;;;;;;69.45;30.67;;;;;;;-0.37;69.92;100924.22;681932;28;46241;-63
2020/12/03 00:16:53;;;;;;;71.13;31.50;;;;;;;-0.39;69.79;100926.13;681811;28;52795;-63
2020/12/03 00:17:14;;;;;;;69.78;30.45;;;;;;;-0.39;69.91;100920.81;682070;28;42022;-63
2020/12/03 00:17:35;;;;;;;67.38;29.55;;;;;;;-0.39;69.76;100923.47;684269;28;8355;-62
2020/12/03 00:17:57;;;;;;;67.22;30.42;;;;;;;-0.39;70.07;100923.47;684437;28;46433;-59
2020/12/03 00:18:18;;;;;;;64.30;30.08;;;;;;;-0.40;69.98;100916.44;685405;28;23420;-63
2020/12/03 00:18:40;;;;;;;67.28;29.55;;;;;;;-0.40;70.05;100923.56;685106;28;45174;-61
2020/12/03 00:19:04;;;;;;;67.43;30.35;;;;;;;-0.39;69.96;100919.97;685443;28;22391;-63
2020/12/03 00:19:26;;;;;;;62.85;29.85;;;;;;;-0.39;69.99;100918.16;683007;28;92341;-63
2020/12/03 00:19:47;;;;;;;69.22;30.88;;;;;;;-0.38;69.98;100914.56;684120;28;47447;-61
2020/12/03 00:20:16;;;;;;;69.30;31.08;;;;;;;-0.35;69.56;100921.47;682194;28;46336;-63
2020/12/03 00:20:37;;;;;;;69.10;30.05;;;;;;;-0.34;69.88;100917.03;679054;28;138859;-63
2020/12/03 00:21:01;;;;;;;70.43;29.90;;;;;;;-0.34;69.87;100911.72;682121;28;47373;-63
2020/12/03 00:21:30;;;;;;;65.57;30.70;;;;;;;-0.38;69.94;100903.09;681215;28;69588;-63
2020/12/03 00:21:58;;;;;;;66.65;30.23;;;;;;;-0.38;69.93;100911.91;679101;28;128908;-61
2020/12/03 00:22:19;;;;;;;70.35;30.67;;;;;;;-0.39;69.95;100912.84;678568;28;136751;-63
2020/12/03 00:22:40;;;;;;;69.03;30.30;;;;;;;-0.41;69.94;100911.25;682828;28;21313;-62
2020/12/03 00:23:03;;;;;;;67.75;30.65;;;;;;;-0.39;70.13;100912.03;680844;28;46492;-63
2020/12/03 00:23:24;;;;;;;70.88;31.77;;;;;;;-0.39;70.06;100923.47;682073;28;45296;-63
2020/12/03 00:23:45;;;;;;;67.13;30.10;;;;;;;-0.42;69.96;100913.06;682392;28;46325;-63
2020/12/03 00:24:08;;;;;;;72.90;30.38;;;;;;;-0.44;70.13;100917.63;683178;28;22340;-63
2020/12/03 00:24:31;;;;;;;67.15;30.08;;;;;;;-0.41;69.83;100922.72;681527;28;69424;-60
2020/12/03 00:24:53;;;;;;;72.35;30.58;;;;;;;-0.41;69.94;100920.09;681619;28;69425;-63
2020/12/03 00:25:14;;;;;;;74.03;31.73;;;;;;;-0.40;69.75;100920.91;682727;28;15592;-63
2020/12/03 00:25:35;;;;;;;65.38;30.10;;;;;;;-0.42;69.79;100915.72;682179;28;46328;-62
2020/12/03 00:25:57;;;;;;;63.03;29.88;;;;;;;-0.42;69.86;100917.53;682974;28;23466;-63
2020/12/03 00:26:19;;;;;;;67.15;30.05;;;;;;;-0.42;69.84;100918.38;682286;28;43736;-63
2020/12/03 00:26:40;;;;;;;69.10;30.07;;;;;;;-0.43;70.00;100918.47;682984;28;21759;-62
2020/12/03 00:27:06;;;;;;;71.22;29.83;;;;;;;-0.43;69.86;100915.81;681743;28;46245;-61
2020/12/03 00:27:27;;;;;;;65.60;29.30;;;;;;;-0.41;70.00;100913.91;679143;28;136556;-62
2020/12/03 00:27:51;;;;;;;69.40;30.15;;;;;;;-0.42;69.93;100917.53;683404;28;13212;-60
2020/12/03 00:28:14;;;;;;;66.82;30.33;;;;;;;-0.42;69.80;100918.38;683525;28;14766;-63
2020/12/03 00:28:37;;;;;;;68.70;30.38;;;;;;;-0.40;69.99;100916.44;682934;28;25448;-63
2020/12/03 00:28:59;;;;;;;67.30;28.77;;;;;;;-0.41;70.04;100911.25;681244;28;69354;-62
2020/12/03 00:29:21;;;;;;;66.78;30.33;;;;;;;-0.39;69.89;100914.66;681925;28;38382;-63
2020/12/03 00:29:42;;;;;;;71.55;30.27;;;;;;;-0.39;70.01;100909.38;682407;28;43669;-61
2020/12/03 00:30:05;;;;;;;63.40;29.05;;;;;;;-0.41;69.71;100909.47;683836;28;838;-63
2020/12/03 00:30:26;;;;;;;68.82;30.42;;;;;;;-0.42;69.81;100915.72;681336;28;70644;-62
2020/12/03 00:30:48;;;;;;;67.75;29.70;;;;;;;-0.42;70.09;100907.75;683005;28;21550;-61
2020/12/03 00:31:10;;;;;;;68.82;30.52;;;;;;;-0.43;70.12;100908.69;683027;28;23417;-63
2020/12/03 00:31:32;;;;;;;71.68;31.27;;;;;;;-0.43;69.91;100906.03;681368;28;67565;-62
2020/12/03 00:31:53;;;;;;;70.80;30.52;;;;;;;-0.42;69.78;100912.22;682612;28;22421;-63
2020/12/03 00:32:14;;;;;;;72.28;30.00;;;;;;;-0.41;69.68;100906.81;682018;28;46386;-63
2020/12/03 00:32:36;;;;;;;73.68;30.75;;;;;;;-0.44;69.81;100906.16;683429;28;4557;-63
2020/12/03 00:32:57;;;;;;;73.25;29.83;;;;;;;-0.47;69.86;100909.00;682798;28;22473;-64
2020/12/03 00:33:19;;;;;;;68.13;30.33;;;;;;;-0.48;70.02;100909.97;682093;28;42958;-62
2020/12/03 00:33:40;;;;;;;70.57;31.02;;;;;;;-0.46;69.83;100908.06;683210;28;21657;-62
2020/12/03 00:34:04;;;;;;;65.30;29.30;;;;;;;-0.45;70.17;100907.13;683385;28;17161;-62
2020/12/03 00:34:26;;;;;;;68.80;30.38;;;;;;;-0.44;69.82;100909.66;680302;28;101455;-63
2020/12/03 00:34:50;;;;;;;65.90;29.70;;;;;;;-0.45;70.15;100910.59;684071;28;14938;-61
2020/12/03 00:35:13;;;;;;;66.72;29.65;;;;;;;-0.42;69.89;100914.88;683511;28;932;-63
2020/12/03 00:35:34;;;;;;;65.13;29.85;;;;;;;-0.43;69.78;100903.38;682446;28;55813;-63
2020/12/03 00:35:57;;;;;;;67.35;30.42;;;;;;;-0.44;70.08;100912.31;683968;28;20625;-61
2020/12/03 00:36:20;;;;;;;69.80;30.48;;;;;;;-0.45;70.04;100907.97;683029;28;68254;-62
2020/12/03 00:36:41;;;;;;;72.47;30.08;;;;;;;-0.44;69.95;100911.44;683262;28;46308;-61
2020/12/03 00:37:02;;;;;;;70.68;30.15;;;;;;;-0.44;70.07;100907.00;684281;28;35915;-62
2020/12/03 00:37:24;;;;;;;72.75;30.90;;;;;;;-0.44;69.97;100898.19;681726;29;21479;-63
2020/12/03 00:37:47;;;;;;;70.85;29.65;;;;;;;-0.42;69.89;100906.91;681817;28;36229;-63
2020/12/03 00:38:08;;;;;;;69.20;30.02;;;;;;;-0.43;69.86;100907.84;681886;28;59828;-63
2020/12/03 00:38:30;;;;;;;68.88;30.08;;;;;;;-0.42;69.82;100904.25;683337;28;23739;-63
2020/12/03 00:38:51;;;;;;;71.05;30.75;;;;;;;-0.42;69.74;100905.09;683350;28;22405;-62
2020/12/03 00:39:14;;;;;;;70.28;29.17;;;;;;;-0.42;69.66;100904.25;682203;28;46332;-62
2020/12/03 00:39:36;;;;;;;72.32;29.63;;;;;;;-0.42;69.65;100902.44;680904;28;69344;-63
2020/12/03 00:39:59;;;;;;;69.45;30.38;;;;;;;-0.42;69.79;100897.13;682755;28;46318;-62
2020/12/03 00:40:22;;;;;;;72.10;30.63;;;;;;;-0.43;69.61;100903.38;681813;28;69420;-62
2020/12/03 00:40:44;;;;;;;68.97;29.70;;;;;;;-0.42;69.61;100902.44;682191;28;67265;-62
2020/12/03 00:41:05;;;;;;;68.15;30.45;;;;;;;-0.44;69.58;100901.72;682659;28;44383;-62
2020/12/03 00:41:26;;;;;;;70.75;30.38;;;;;;;-0.45;69.69;100899.16;683543;28;22390;-63
2020/12/03 00:41:49;;;;;;;70.43;30.73;;;;;;;-0.47;69.79;100899.25;683646;28;8760;-62
2020/12/03 00:42:11;;;;;;;71.07;30.63;;;;;;;-0.47;69.98;100899.25;681428;28;69442;-61
2020/12/03 00:42:32;;;;;;;68.32;29.63;;;;;;;-0.45;69.73;100897.34;682302;28;46350;-63
2020/12/03 00:42:55;;;;;;;68.57;30.13;;;;;;;-0.45;69.84;100902.66;683256;28;23688;-62
2020/12/03 00:43:17;;;;;;;71.20;29.67;;;;;;;-0.45;69.70;100893.84;681808;28;70395;-63
2020/12/03 00:43:38;;;;;;;74.22;30.58;;;;;;;-0.45;69.80;100900.00;682335;28;46396;-62
2020/12/03 00:44:00;;;;;;;69.10;30.15;;;;;;;-0.45;69.55;100894.69;683343;28;22404;-64
2020/12/03 00:44:23;;;;;;;67.55;29.98;;;;;;;-0.47;69.72;100899.25;682353;28;47396;-64
2020/12/03 00:44:44;;;;;;;70.18;30.45;;;;;;;-0.47;69.71;100899.25;681501;28;69121;-63
2020/12/03 00:45:08;;;;;;;70.05;29.63;;;;;;;-0.47;69.60;100898.38;685321;28;23538;-63
2020/12/03 00:45:30;;;;;;;69.15;30.80;;;;;;;-0.47;69.89;100899.25;683052;28;93218;-62
2020/12/03 00:45:51;;;;;;;71.03;31.58;;;;;;;-0.49;69.75;100893.19;685291;28;26618;-62
2020/12/03 00:46:12;;;;;;;72.38;31.85;;;;;;;-0.47;69.83;100903.69;685717;28;23407;-63
2020/12/03 00:46:34;;;;;;;73.40;31.10;;;;;;;-0.48;69.67;100899.34;685147;28;2635;-63
2020/12/03 00:46:57;;;;;;;67.35;30.58;;;;;;;-0.50;69.87;100899.47;683524;28;13317;-63
2020/12/03 00:47:18;;;;;;;69.38;30.27;;;;;;;-0.49;69.87;100902.94;682175;29;979;-59
2020/12/03 00:47:40;;;;;;;72.43;30.92;;;;;;;-0.48;69.84;100902.00;682609;29;985;-63
2020/12/03 00:48:02;;;;;;;66.85;30.77;;;;;;;-0.47;69.86;100904.56;680919;29;37507;-63
2020/12/03 00:48:24;;;;;;;70.20;30.45;;;;;;;-0.46;69.92;100905.41;681674;28;44248;-61
2020/12/03 00:48:45;;;;;;;73.50;31.20;;;;;;;-0.48;69.95;100902.00;681172;29;46329;-63
2020/12/03 00:49:07;;;;;;;65.73;29.90;;;;;;;-0.49;69.87;100902.94;682218;28;22469;-61
2020/12/03 00:49:28;;;;;;;73.00;30.90;;;;;;;-0.49;69.78;100892.34;680982;28;47384;-63
2020/12/03 00:49:50;;;;;;;69.05;30.35;;;;;;;-0.49;70.01;100895.00;678173;29;46350;-62
2020/12/03 00:50:15;;;;;;;67.50;31.08;;;;;;;-0.49;69.87;100898.47;678056;29;33053;-63
2020/12/03 00:50:36;;;;;;;72.00;31.27;;;;;;;-0.47;69.99;100893.94;675434;29;91651;-64
2020/12/03 00:50:58;;;;;;;75.13;31.00;;;;;;;-0.48;70.07;100896.72;679582;29;46333;-63
2020/12/03 00:51:20;;;;;;;70.57;31.27;;;;;;;-0.49;70.00;100903.78;682995;28;23466;-60
2020/12/03 00:51:42;;;;;;;72.00;31.58;;;;;;;-0.48;69.86;100900.19;683620;28;62720;-63
2020/12/03 00:52:05;;;;;;;70.63;31.20;;;;;;;-0.47;70.22;100895.72;683284;28;1412;-62
2020/12/03 00:52:27;;;;;;;69.45;29.52;;;;;;;-0.47;70.09;100901.91;681912;28;46245;-61
2020/12/03 00:52:49;;;;;;;66.97;29.48;;;;;;;-0.47;70.00;100893.06;681122;29;46355;-62
2020/12/03 00:53:11;;;;;;;67.18;29.85;;;;;;;-0.47;70.09;100895.72;679084;28;21551;-64
2020/12/03 00:53:33;;;;;;;70.45;30.55;;;;;;;-0.49;69.96;100895.84;677602;29;69394;-61
2020/12/03 00:53:55;;;;;;;70.72;30.92;;;;;;;-0.47;70.13;100898.38;677416;29;44355;-62
2020/12/03 00:54:17;;;;;;;69.28;29.75;;;;;;;-0.47;70.00;100899.25;677346;29;46296;-63
2020/12/03 00:54:39;;;;;;;71.13;30.98;;;;;;;-0.48;69.87;100897.53;675648;29;44378;-63
2020/12/03 00:55:00;;;;;;;68.50;30.93;;;;;;;-0.49;69.89;100890.53;675578;29;23554;-61
2020/12/03 00:55:22;;;;;;;68.35;30.80;;;;;;;-0.50;70.00;100891.50;675203;29;44396;-62
2020/12/03 00:55:43;;;;;;;68.75;31.10;;;;;;;-0.48;69.85;100894.06;674341;29;44144;-61
2020/12/03 00:56:07;;;;;;;65.40;30.08;;;;;;;-0.48;69.90;100894.06;675528;29;46383;-63
2020/12/03 00:56:28;;;;;;;65.88;30.08;;;;;;;-0.46;70.00;100894.78;673994;29;70504;-61
2020/12/03 00:56:51;;;;;;;66.32;30.45;;;;;;;-0.47;69.75;100885.13;673291;29;46315;-61
2020/12/03 00:57:12;;;;;;;70.57;31.07;;;;;;;-0.47;69.77;100893.94;675140;29;22455;-63
2020/12/03 00:57:37;;;;;;;71.90;30.02;;;;;;;-0.48;69.79;100889.59;672466;29;92347;-64
2020/12/03 00:57:59;;;;;;;67.63;29.80;;;;;;;-0.46;69.76;100894.78;673363;29;34679;-60
2020/12/03 00:58:20;;;;;;;71.20;30.67;;;;;;;-0.47;69.87;100875.38;675394;29;45270;-63
2020/12/03 00:58:41;;;;;;;75.43;31.33;;;;;;;-0.45;69.74;100883.22;675640;29;46331;-63
2020/12/03 00:59:03;;;;;;;71.32;31.23;;;;;;;-0.44;69.73;100883.13;677703;29;23512;-62
2020/12/03 00:59:25;;;;;;;68.90;30.40;;;;;;;-0.44;69.79;100885.78;680286;29;1229;-63
2020/12/03 00:59:46;;;;;;;71.20;30.55;;;;;;;-0.44;69.75;100879.59;682448;29;1002;-63
2020/12/03 01:00:10;;;;;;;68.97;30.15;;;;;;;-0.45;69.74;100884.06;681210;29;1272;-62
2020/12/03 01:00:32;;;;;;;65.90;30.20;;;;;;;-0.45;69.71;100884.06;678708;29;92145;-62
2020/12/03 01:00:54;;;;;;;67.75;31.25;;;;;;;-0.45;69.90;100884.06;680421;29;32944;-63
2020/12/03 01:01:16;;;;;;;70.18;30.35;;;;;;;-0.46;69.76;100889.47;680807;28;22394;-63
2020/12/03 01:01:38;;;;;;;72.47;30.15;;;;;;;-0.45;69.64;100883.22;681894;29;914;-63
2020/12/03 01:01:59;;;;;;;67.95;29.42;;;;;;;-0.44;69.66;100888.44;679461;29;45271;-63
2020/12/03 01:02:21;;;;;;;69.88;30.35;;;;;;;-0.43;69.65;100887.47;680802;28;22541;-62
2020/12/03 01:02:42;;;;;;;71.45;30.83;;;;;;;-0.43;69.90;100889.28;679610;28;46306;-63
2020/12/03 01:03:04;;;;;;;73.97;31.02;;;;;;;-0.43;69.76;100890.13;680878;29;13760;-62
2020/12/03 01:03:25;;;;;;;73.80;31.40;;;;;;;-0.43;69.72;100887.47;680988;29;12236;-60
2020/12/03 01:03:48;;;;;;;74.20;32.10;;;;;;;-0.44;69.68;100890.22;681037;29;22439;-64
2020/12/03 01:04:09;;;;;;;71.15;30.58;;;;;;;-0.46;69.59;100898.28;679107;28;70309;-62
2020/12/03 01:04:31;;;;;;;70.75;30.63;;;;;;;-0.46;69.73;100895.63;680887;29;17479;-63
2020/12/03 01:04:52;;;;;;;68.95;31.27;;;;;;;-0.44;69.81;100888.44;680856;29;24504;-62
2020/12/03 01:05:15;;;;;;;72.55;31.38;;;;;;;-0.44;69.75;100884.91;679618;29;45262;-64
2020/12/03 01:05:36;;;;;;;70.35;30.27;;;;;;;-0.44;69.54;100888.44;679226;29;67498;-64
2020/12/03 01:05:57;;;;;;;68.95;30.27;;;;;;;-0.45;69.71;100886.72;681044;28;21549;-62
2020/12/03 01:06:20;;;;;;;66.38;30.08;;;;;;;-0.44;69.82;100890.22;680942;29;23451;-63
2020/12/03 01:06:44;;;;;;;68.70;30.58;;;;;;;-0.46;69.75;100889.47;680424;29;47364;-63
2020/12/03 01:07:06;;;;;;;65.45;30.17;;;;;;;-0.47;69.63;100885.13;676130;29;116094;-63
2020/12/03 01:07:27;;;;;;;70.35;30.70;;;;;;;-0.47;69.61;100887.78;681125;29;1096;-63
2020/12/03 01:07:49;;;;;;;69.13;30.80;;;;;;;-0.47;69.73;100891.28;681901;29;1524;-63
2020/12/03 01:08:10;;;;;;;68.22;30.55;;;;;;;-0.46;69.76;100889.47;680950;29;24134;-63
2020/12/03 01:08:31;;;;;;;69.22;30.15;;;;;;;-0.45;69.71;100884.06;681032;29;21426;-63
2020/12/03 01:08:53;;;;;;;68.28;30.83;;;;;;;-0.45;69.75;100878.75;681358;29;13230;-63
2020/12/03 01:09:14;;;;;;;67.00;30.75;;;;;;;-0.43;69.87;100886.63;681369;29;1187;-63
2020/12/03 01:09:36;;;;;;;67.47;30.83;;;;;;;-0.45;69.66;100881.41;680685;29;29284;-63
2020/12/03 01:09:58;;;;;;;69.70;31.15;;;;;;;-0.45;69.84;100880.59;680076;28;44451;-64
2020/12/03 01:10:21;;;;;;;64.75;29.25;;;;;;;-0.46;69.74;100881.53;680062;29;46266;-63
2020/12/03 01:10:42;;;;;;;70.80;30.33;;;;;;;-0.46;69.64;100889.47;679274;28;69431;-63
2020/12/03 01:11:05;;;;;;;66.45;30.08;;;;;;;-0.47;69.64;100887.78;680851;29;23649;-62
2020/12/03 01:11:26;;;;;;;70.10;30.63;;;;;;;-0.47;69.77;100880.69;679328;29;57530;-63
2020/12/03 01:11:47;;;;;;;69.13;30.70;;;;;;;-0.46;69.72;100884.19;680784;29;16860;-61
2020/12/03 01:12:10;;;;;;;65.95;29.75;;;;;;;-0.46;69.50;100874.41;678651;29;20384;-64
2020/12/03 01:12:32;;;;;;;70.97;30.92;;;;;;;-0.45;69.63;100885.88;679353;28;63940;-60
2020/12/03 01:12:53;;;;;;;64.72;30.65;;;;;;;-0.44;69.84;100887.56;682373;28;45157;-62
2020/12/03 01:13:15;;;;;;;67.85;30.67;;;;;;;-0.44;69.65;100876.94;683220;28;20855;-63
2020/12/03 01:13:36;;;;;;;75.03;30.67;;;;;;;-0.46;69.68;100874.41;683474;28;22399;-63
2020/12/03 01:13:57;;;;;;;70.20;30.88;;;;;;;-0.45;69.58;100872.63;682486;28;45240;-63
2020/12/03 01:14:19;;;;;;;67.90;30.48;;;;;;;-0.44;69.54;100869.00;683338;28;21703;-61
2020/12/03 01:14:40;;;;;;;68.78;30.70;;;;;;;-0.42;69.52;100875.06;682580;28;46293;-62
2020/12/03 01:15:03;;;;;;;68.53;30.80;;;;;;;-0.42;69.40;100875.06;683027;28;22274;-63
2020/12/03 01:15:24;;;;;;;68.43;29.95;;;;;;;-0.44;69.54;100874.31;681895;28;69078;-63
2020/12/03 01:15:46;;;;;;;66.10;30.70;;;;;;;-0.43;69.35;100878.66;683988;28;993;-63
2020/12/03 01:16:12;;;;;;;68.78;30.73;;;;;;;-0.44;69.40;100871.66;682693;28;46300;-60
2020/12/03 01:16:33;;;;;;;67.03;30.75;;;;;;;-0.45;69.44;100883.22;679354;28;137917;-61
2020/12/03 01:16:54;;;;;;;67.97;30.23;;;;;;;-0.45;69.37;100878.75;683366;28;21532;-62
2020/12/03 01:17:17;;;;;;;66.03;30.30;;;;;;;-0.45;69.47;100873.47;682693;28;23430;-64
2020/12/03 01:17:38;;;;;;;70.38;31.35;;;;;;;-0.44;69.62;100874.31;681995;28;69456;-62
2020/12/03 01:17:59;;;;;;;71.03;31.67;;;;;;;-0.46;69.47;100874.41;683603;28;21542;-62
2020/12/03 01:18:20;;;;;;;73.60;31.65;;;;;;;-0.46;69.65;100877.06;683213;28;22404;-62
2020/12/03 01:18:42;;;;;;;72.95;31.23;;;;;;;-0.47;69.46;100878.03;684046;28;21513;-64
2020/12/03 01:19:03;;;;;;;73.00;31.15;;;;;;;-0.44;69.49;100874.31;682494;28;44375;-63
2020/12/03 01:19:25;;;;;;;72.03;31.13;;;;;;;-0.44;69.67;100874.31;683375;28;23146;-63
2020/12/03 01:19:46;;;;;;;69.78;30.85;;;;;;;-0.45;69.57;100875.28;683041;28;44296;-63
2020/12/03 01:20:08;;;;;;;70.40;31.10;;;;;;;-0.46;69.51;100869.09;683269;28;21531;-61
2020/12/03 01:20:30;;;;;;;66.43;30.08;;;;;;;-0.46;69.38;100873.56;683225;28;45044;-63
2020/12/03 01:20:52;;;;;;;67.07;30.13;;;;;;;-0.46;69.59;100874.41;683120;28;45059;-62
2020/12/03 01:21:17;;;;;;;65.53;29.73;;;;;;;-0.46;69.57;100866.44;682631;28;45293;-63
2020/12/03 01:21:38;;;;;;;73.00;31.20;;;;;;;-0.46;69.68;100863.78;680487;28;116031;-61
2020/12/03 01:22:01;;;;;;;71.18;30.33;;;;;;;-0.47;69.47;100867.41;682914;28;23519;-63
2020/12/03 01:22:22;;;;;;;69.60;29.75;;;;;;;-0.48;69.47;100860.41;681824;28;69449;-63
2020/12/03 01:22:44;;;;;;;69.25;29.92;;;;;;;-0.47;69.39;100861.25;683317;28;21513;-63
2020/12/03 01:23:05;;;;;;;73.82;30.55;;;;;;;-0.47;69.28;100861.25;682707;28;47490;-62
2020/12/03 01:23:26;;;;;;;69.72;30.33;;;;;;;-0.46;69.29;100860.28;683335;28;22244;-61
2020/12/03 01:23:50;;;;;;;68.50;30.27;;;;;;;-0.45;69.46;100865.50;682819;28;46232;-63
2020/12/03 01:24:11;;;;;;;69.50;30.17;;;;;;;-0.46;69.44;100861.13;681883;28;69729;-64
2020/12/03 01:24:33;;;;;;;70.88;31.40;;;;;;;-0.47;69.43;100864.75;683973;28;21356;-62
2020/12/03 01:24:54;;;;;;;78.55;31.77;;;;;;;-0.43;69.43;100863.59;682925;28;43563;-63
2020/12/03 01:25:17;;;;;;;71.38;30.48;;;;;;;-0.43;69.41;100855.63;682738;28;21545;-63
2020/12/03 01:25:38;;;;;;;69.20;30.40;;;;;;;-0.43;69.34;100857.44;682082;28;70353;-63
2020/12/03 01:25:59;;;;;;;67.97;30.10;;;;;;;-0.43;69.52;100858.28;683496;28;24730;-63
2020/12/03 01:26:20;;;;;;;68.55;29.63;;;;;;;-0.43;69.48;100858.28;683201;28;22423;-63
2020/12/03 01:26:42;;;;;;;67.00;30.10;;;;;;;-0.45;69.32;100851.38;682543;28;45199;-63
2020/12/03 01:27:03;;;;;;;71.32;30.13;;;;;;;-0.47;69.57;100861.25;683402;28;23471;-63
2020/12/03 01:27:25;;;;;;;67.82;30.67;;;;;;;-0.45;69.43;100854.88;682403;28;46357;-63
2020/12/03 01:27:46;;;;;;;70.18;30.98;;;;;;;-0.44;69.44;100853.06;683429;28;23493;-62
2020/12/03 01:28:08;;;;;;;69.60;30.58;;;;;;;-0.45;69.42;100865.50;683213;28;22522;-63
2020/12/03 01:28:29;;;;;;;70.50;30.95;;;;;;;-0.45;69.41;100857.53;682813;28;46426;-63
2020/12/03 01:28:50;;;;;;;71.13;30.02;;;;;;;-0.43;69.47;100852.97;683298;28;23463;-63
2020/12/03 01:29:12;;;;;;;68.57;30.65;;;;;;;-0.43;69.47;100854.78;682381;28;46359;-62
2020/12/03 01:29:33;;;;;;;64.25;30.08;;;;;;;-0.46;69.35;100849.69;682857;28;23910;-63
2020/12/03 01:29:55;;;;;;;69.93;31.45;;;;;;;-0.44;69.40;100853.06;682729;28;44349;-63
2020/12/03 01:30:19;;;;;;;73.75;31.67;;;;;;;-0.44;69.40;100850.41;682939;28;23501;-61
2020/12/03 01:30:41;;;;;;;72.32;30.38;;;;;;;-0.43;69.42;100846.81;680419;28;115344;-62
2020/12/03 01:31:03;;;;;;;67.88;30.67;;;;;;;-0.43;69.49;100852.97;683325;28;23407;-63
2020/12/03 01:31:25;;;;;;;70.35;31.08;;;;;;;-0.43;69.57;100855.63;681639;28;69421;-63
2020/12/03 01:31:46;;;;;;;71.45;31.38;;;;;;;-0.43;69.32;100847.66;683307;28;23530;-61
2020/12/03 01:32:07;;;;;;;72.68;30.85;;;;;;;-0.43;69.29;100844.16;683800;28;3967;-63
2020/12/03 01:32:29;;;;;;;70.53;30.90;;;;;;;-0.41;69.39;100848.44;682103;28;46316;-63
2020/12/03 01:32:50;;;;;;;68.40;30.52;;;;;;;-0.43;69.27;100846.81;683655;28;23521;-62
2020/12/03 01:33:12;;;;;;;70.35;30.70;;;;;;;-0.44;69.18;100848.63;682298;28;46435;-63
2020/12/03 01:33:33;;;;;;;71.55;30.45;;;;;;;-0.48;69.14;100839.16;683123;28;22710;-62
2020/12/03 01:33:54;;;;;;;68.05;30.45;;;;;;;-0.45;69.43;100848.75;683268;28;21197;-63
2020/12/03 01:34:16;;;;;;;74.38;30.80;;;;;;;-0.44;69.36;100847.75;683970;28;1527;-63
2020/12/03 01:34:37;;;;;;;67.00;31.67;;;;;;;-0.42;69.21;100849.38;683426;28;23524;-63
2020/12/03 01:34:59;;;;;;;65.70;30.30;;;;;;;-0.42;69.31;100843.22;682328;28;46357;-63
2020/12/03 01:35:21;;;;;;;67.10;30.55;;;;;;;-0.45;69.21;100846.09;684106;28;1021;-61
2020/12/03 01:35:42;;;;;;;71.10;31.23;;;;;;;-0.45;69.29;100838.97;682693;28;38656;-63
2020/12/03 01:36:04;;;;;;;71.55;29.92;;;;;;;-0.44;69.19;100843.31;683165;28;22526;-63
2020/12/03 01:36:25;;;;;;;68.28;30.35;;;;;;;-0.46;69.34;100841.72;682655;28;45350;-63
2020/12/03 01:36:48;;;;;;;69.63;31.15;;;;;;;-0.45;69.14;100840.78;682567;28;42205;-63
2020/12/03 01:37:12;;;;;;;66.93;31.10;;;;;;;-0.46;69.25;100834.59;681551;28;68521;-64
2020/12/03 01:37:34;;;;;;;69.72;31.40;;;;;;;-0.47;69.16;100840.88;680974;28;85913;-63
2020/12/03 01:37:58;;;;;;;69.72;30.15;;;;;;;-0.48;69.28;100839.16;683647;28;13289;-63
2020/12/03 01:38:20;;;;;;;69.38;30.33;;;;;;;-0.46;69.38;100834.59;684243;28;1113;-63
2020/12/03 01:38:42;;;;;;;69.75;30.67;;;;;;;-0.45;69.25;100835.47;683696;28;19815;-63
2020/12/03 01:39:05;;;;;;;69.47;30.42;;;;;;;-0.47;69.54;100829.41;682890;28;35968;-64
2020/12/03 01:39:26;;;;;;;71.88;30.63;;;;;;;-0.48;69.32;100833.88;682843;28;37661;-61
2020/12/03 01:39:47;;;;;;;69.60;30.48;;;;;;;-0.48;69.26;100833.88;682705;28;46349;-63
2020/12/03 01:40:12;;;;;;;70.90;30.42;;;;;;;-0.49;69.20;100831.31;683517;28;22397;-63
2020/12/03 01:40:33;;;;;;;71.68;31.27;;;;;;;-0.49;69.36;100828.66;681219;28;92293;-61
2020/12/03 01:40:55;;;;;;;65.15;30.80;;;;;;;-0.49;69.46;100826.84;682576;28;44388;-62
2020/12/03 01:41:16;;;;;;;63.10;30.13;;;;;;;-0.49;69.35;100831.31;683329;28;22412;-62
2020/12/03 01:41:37;;;;;;;65.82;30.23;;;;;;;-0.46;69.65;100833.75;683403;28;23473;-61
2020/12/03 01:41:59;;;;;;;69.95;29.75;;;;;;;-0.46;69.22;100831.09;681768;28;44668;-62